Time;durP1;ratioP1;P1;durP2;ratioP2;P2;SDS_P1;SDS_P2;PMS_P1;PMS_P2;Temp;Humidity;BMP_temperature;BMP_pressure;BME280_temperature;BME280_humidity;BME280_pressure;Samples;Min_cycle;Max_cycle;Signal;HPM_P1;HPM_P2
2024/04/05 00:02:19;;;;;;;17.30;2.67;;;11.70;95.60;;;;;;5033783;28;20036;-78
2024/04/05 00:04:45;;;;;;;18.90;3.40;;;11.70;95.60;;;;;;5033687;28;20025;-78
2024/04/05 00:07:12;;;;;;;13.63;1.98;;;11.60;95.70;;;;;;5035206;28;20021;-79
2024/04/05 00:09:41;;;;;;;18.27;3.15;;;11.70;95.80;;;;;;5034827;28;20025;-78
2024/04/05 00:12:07;;;;;;;14.40;3.20;;;11.70;95.90;;;;;;5035131;28;20491;-78
2024/04/05 00:14:33;;;;;;;19.67;3.00;;;11.70;95.90;;;;;;5035125;28;20033;-78
2024/04/05 00:16:58;;;;;;;12.48;2.40;;;11.70;96.00;;;;;;5034767;28;20465;-78
2024/04/05 00:19:24;;;;;;;14.25;4.07;;;11.70;96.10;;;;;;5033632;28;20388;-78
2024/04/05 00:21:50;;;;;;;15.48;3.70;;;11.70;96.10;;;;;;5034344;28;20025;-78
2024/04/05 00:24:15;;;;;;;17.42;3.15;;;11.70;96.20;;;;;;5033318;28;20037;-79
2024/04/05 00:26:41;;;;;;;19.92;3.08;;;11.70;96.30;;;;;;5034702;28;20021;-78
2024/04/05 00:29:07;;;;;;;15.52;3.13;;;11.70;96.40;;;;;;5033404;28;20487;-78
2024/04/05 00:31:32;;;;;;;20.90;3.65;;;11.70;96.50;;;;;;5034583;28;20025;-78
2024/04/05 00:33:58;;;;;;;25.20;3.30;;;11.70;96.60;;;;;;5034323;28;20388;-78
2024/04/05 00:36:24;;;;;;;14.95;2.63;;;11.70;96.80;;;;;;5033155;28;20026;-78
2024/04/05 00:38:50;;;;;;;17.60;3.15;;;11.80;96.90;;;;;;5032973;28;20079;-78
2024/04/05 00:41:16;;;;;;;16.90;3.22;;;11.80;97.00;;;;;;5034838;28;20025;-78
2024/04/05 00:43:42;;;;;;;17.55;3.90;;;11.80;97.20;;;;;;5032835;28;20021;-79
2024/04/05 00:46:08;;;;;;;19.77;3.58;;;11.80;97.50;;;;;;5033072;28;20388;-78
2024/04/05 00:48:35;;;;;;;17.75;3.30;;;11.90;97.60;;;;;;5034281;28;20061;-79
2024/04/05 00:51:05;;;;;;;21.92;3.15;;;11.90;97.60;;;;;;5034324;28;20092;-78
2024/04/05 00:53:32;;;;;;;16.15;3.95;;;11.90;98.00;;;;;;5033062;28;20080;-78
2024/04/05 00:55:59;;;;;;;24.45;2.85;;;11.90;98.20;;;;;;5032367;28;20484;-78
2024/04/05 00:58:26;;;;;;;19.17;3.00;;;11.90;98.30;;;;;;5032601;28;20022;-78
2024/04/05 01:00:51;;;;;;;16.83;3.08;;;11.90;98.40;;;;;;5034123;28;20033;-78
2024/04/05 01:03:19;;;;;;;23.15;3.85;;;11.90;98.50;;;;;;5033977;28;20025;-79
2024/04/05 01:05:46;;;;;;;17.77;3.08;;;12.00;98.60;;;;;;5034118;28;20018;-78
2024/04/05 01:08:14;;;;;;;16.95;3.22;;;12.00;98.70;;;;;;5032601;28;20018;-78
2024/04/05 01:10:41;;;;;;;15.82;2.50;;;12.00;98.70;;;;;;5032472;28;20072;-78
2024/04/05 01:13:08;;;;;;;14.05;3.20;;;12.10;98.90;;;;;;5033782;28;20040;-78
2024/04/05 01:15:35;;;;;;;21.92;3.50;;;12.10;99.00;;;;;;5032311;28;20034;-78
2024/04/05 01:18:05;;;;;;;14.77;3.17;;;12.10;99.10;;;;;;5032537;28;20028;-79
2024/04/05 01:20:33;;;;;;;15.02;3.03;;;12.20;99.20;;;;;;5034302;28;20025;-79
2024/04/05 01:23:10;;;;;;;16.08;3.35;;;12.20;99.20;;;;;;5033139;28;20408;-79
2024/04/05 01:25:36;;;;;;;14.85;2.53;;;12.20;99.40;;;;;;5033810;28;20373;-79
2024/04/05 01:28:04;;;;;;;14.07;3.22;;;12.20;99.50;;;;;;5033632;28;20105;-79
2024/04/05 01:30:29;;;;;;;16.67;3.38;;;12.20;99.60;;;;;;5032197;28;20495;-79
2024/04/05 01:33:00;;;;;;;17.23;2.30;;;12.20;99.60;;;;;;5033577;28;20057;-79
2024/04/05 01:35:27;;;;;;;15.52;2.25;;;12.30;99.80;;;;;;5033309;28;20430;-78
2024/04/05 01:37:53;;;;;;;17.52;3.15;;;12.20;99.90;;;;;;5033364;28;20029;-78
2024/04/05 01:40:18;;;;;;;17.27;2.35;;;12.30;99.90;;;;;;5033321;28;20032;-78
2024/04/05 01:42:44;;;;;;;17.25;2.53;;;12.30;99.90;;;;;;5033271;28;20104;-78
2024/04/05 01:45:10;;;;;;;11.77;2.75;;;12.40;99.90;;;;;;5032051;28;20495;-78
2024/04/05 01:47:36;;;;;;;20.73;2.88;;;12.40;99.90;;;;;;5032000;28;20044;-79
2024/04/05 01:50:03;;;;;;;18.92;2.63;;;12.40;99.90;;;;;;5033303;28;20156;-78
2024/04/05 01:52:28;;;;;;;18.30;2.60;;;12.40;99.90;;;;;;5033090;28;20048;-78
2024/04/05 01:54:55;;;;;;;15.10;2.38;;;12.40;99.90;;;;;;5032770;28;20128;-79
2024/04/05 01:57:21;;;;;;;15.75;2.60;;;12.40;99.90;;;;;;5033108;28;20022;-79
2024/04/05 01:59:51;;;;;;;16.55;2.33;;;12.40;99.90;;;;;;5033413;28;20377;-79
2024/04/05 02:02:17;;;;;;;17.33;2.05;;;12.40;99.90;;;;;;5032057;28;20499;-79
2024/04/05 02:04:44;;;;;;;20.23;2.60;;;12.40;99.90;;;;;;5033218;28;20110;-79
2024/04/05 02:07:09;;;;;;;14.13;2.15;;;12.40;99.90;;;;;;5032729;28;20493;-79
2024/04/05 02:09:35;;;;;;;16.83;3.10;;;12.40;99.90;;;;;;5031566;28;20027;-79
2024/04/05 02:12:01;;;;;;;15.85;3.08;;;12.40;99.90;;;;;;5033059;28;20032;-79
2024/04/05 02:14:27;;;;;;;19.10;2.70;;;12.40;99.90;;;;;;5032976;28;20103;-79
2024/04/05 02:16:57;;;;;;;20.88;3.00;;;12.50;99.90;;;;;;5031842;28;20053;-79
2024/04/05 02:19:23;;;;;;;16.23;2.75;;;12.40;99.90;;;;;;5031777;28;20117;-79
2024/04/05 02:21:49;;;;;;;16.50;2.88;;;12.40;99.90;;;;;;5032552;28;20448;-78
2024/04/05 02:24:15;;;;;;;13.40;2.22;;;12.40;99.90;;;;;;5033680;28;20072;-79
2024/04/05 02:26:41;;;;;;;13.85;2.17;;;12.40;99.90;;;;;;5031688;28;20045;-79
2024/04/05 02:29:06;;;;;;;13.57;2.95;;;12.40;99.90;;;;;;5032861;28;20030;-79
2024/04/05 02:31:32;;;;;;;15.48;2.72;;;12.40;99.90;;;;;;5031657;28;20041;-79
2024/04/05 02:33:58;;;;;;;19.27;3.38;;;12.40;99.90;;;;;;5032532;28;20377;-79
2024/04/05 02:36:23;;;;;;;20.45;3.05;;;12.40;99.90;;;;;;5031175;28;20064;-79
2024/04/05 02:38:49;;;;;;;18.10;2.20;;;12.30;99.90;;;;;;5032784;28;20040;-79
2024/04/05 02:41:15;;;;;;;16.80;3.83;;;12.30;99.90;;;;;;5032718;28;20113;-79
2024/04/05 02:43:41;;;;;;;16.42;2.70;;;12.30;99.90;;;;;;5032793;28;20500;-79
2024/04/05 02:46:07;;;;;;;16.35;2.95;;;12.30;99.90;;;;;;5031209;28;20018;-79
2024/04/05 02:48:32;;;;;;;19.08;2.72;;;12.30;99.90;;;;;;5031211;28;20116;-79
2024/04/05 02:50:58;;;;;;;16.75;2.88;;;12.30;99.90;;;;;;5032333;28;20359;-79
2024/04/05 02:53:24;;;;;;;13.68;2.40;;;12.30;99.90;;;;;;5032654;28;20029;-79
2024/04/05 02:55:50;;;;;;;14.13;2.35;;;12.30;99.90;;;;;;5032530;28;20025;-78
2024/04/05 02:58:16;;;;;;;15.77;2.53;;;12.20;99.90;;;;;;5032365;28;20067;-79
2024/04/05 03:00:45;;;;;;;27.63;3.10;;;12.30;99.90;;;;;;5031283;28;20104;-79
2024/04/05 03:03:10;;;;;;;12.60;2.13;;;12.30;99.90;;;;;;5031249;28;20021;-79
2024/04/05 03:05:36;;;;;;;14.02;2.53;;;12.20;99.90;;;;;;5032276;28;20453;-79
2024/04/05 03:08:02;;;;;;;14.85;2.53;;;12.30;99.90;;;;;;5031316;28;20112;-79
2024/04/05 03:10:29;;;;;;;15.65;2.38;;;12.20;99.90;;;;;;5031271;28;20092;-79
2024/04/05 03:12:56;;;;;;;17.27;2.30;;;12.30;99.90;;;;;;5032263;28;20083;-79
2024/04/05 03:15:22;;;;;;;15.15;2.22;;;12.20;99.90;;;;;;5031155;28;20037;-79
2024/04/05 03:17:48;;;;;;;21.65;3.67;;;12.20;99.90;;;;;;5032458;28;20068;-79
2024/04/05 03:20:14;;;;;;;17.38;2.47;;;12.20;99.90;;;;;;5035646;28;20049;-79
2024/04/05 03:22:40;;;;;;;19.63;3.13;;;12.20;99.90;;;;;;5034968;28;20037;-79
2024/04/05 03:25:08;;;;;;;20.88;3.97;;;12.30;99.90;;;;;;5034670;28;20032;-79
2024/04/05 03:27:34;;;;;;;14.10;2.60;;;12.30;99.90;;;;;;5035741;28;20029;-79
2024/04/05 03:29:59;;;;;;;14.70;2.35;;;12.20;99.90;;;;;;5035742;28;20026;-79
2024/04/05 03:32:25;;;;;;;17.80;4.15;;;12.30;99.90;;;;;;5034541;28;20052;-79
2024/04/05 03:34:51;;;;;;;15.13;2.50;;;12.30;99.90;;;;;;5035368;28;20075;-79
2024/04/05 03:37:16;;;;;;;13.38;2.72;;;12.30;99.90;;;;;;5035677;28;20024;-79
2024/04/05 03:39:43;;;;;;;16.67;3.08;;;12.30;99.90;;;;;;5035561;28;20029;-80
2024/04/05 03:42:08;;;;;;;14.85;2.33;;;12.30;99.90;;;;;;5034422;28;20022;-79
2024/04/05 03:44:34;;;;;;;20.38;2.90;;;12.30;99.90;;;;;;5035571;28;20033;-79
2024/04/05 03:47:00;;;;;;;19.42;3.85;;;12.30;99.90;;;;;;5035416;28;20551;-80
2024/04/05 03:49:28;;;;;;;17.20;3.55;;;12.40;99.90;;;;;;5035178;28;20053;-80
2024/04/05 03:51:57;;;;;;;18.20;2.78;;;12.40;99.90;;;;;;5035966;28;20037;-80
2024/04/05 03:54:22;;;;;;;14.38;2.35;;;12.40;99.90;;;;;;5035427;28;20025;-80
2024/04/05 03:56:48;;;;;;;16.70;3.05;;;12.40;99.90;;;;;;5033868;28;20052;-80
2024/04/05 03:59:14;;;;;;;16.20;3.25;;;12.30;99.90;;;;;;5035334;28;20388;-80
2024/04/05 04:01:40;;;;;;;13.48;2.90;;;12.30;99.90;;;;;;5033710;28;20072;-79
2024/04/05 04:04:05;;;;;;;18.20;2.75;;;12.30;99.90;;;;;;5035112;28;20421;-79
2024/04/05 04:06:31;;;;;;;14.82;3.13;;;12.30;99.90;;;;;;5035140;28;20053;-80
2024/04/05 04:08:56;;;;;;;16.05;3.33;;;12.30;99.90;;;;;;5035151;28;20025;-79
2024/04/05 04:11:22;;;;;;;11.27;2.42;;;12.30;99.90;;;;;;5034928;28;20026;-80
2024/04/05 04:13:48;;;;;;;11.75;2.75;;;12.30;99.90;;;;;;5034054;28;20026;-80
2024/04/05 04:16:16;;;;;;;17.25;2.70;;;12.40;99.90;;;;;;5033422;28;20064;-80
2024/04/05 04:18:42;;;;;;;15.90;3.20;;;12.40;99.90;;;;;;5033521;28;20021;-79
2024/04/05 04:21:07;;;;;;;16.42;2.88;;;12.30;99.90;;;;;;5034667;28;20460;-81
2024/04/05 04:23:33;;;;;;;12.82;2.30;;;12.40;99.90;;;;;;5034712;28;20054;-80
2024/04/05 04:26:00;;;;;;;12.32;2.08;;;12.40;99.90;;;;;;5034602;28;20108;-80
2024/04/05 04:28:27;;;;;;;19.58;3.75;;;12.40;99.90;;;;;;5025962;28;20556;-81
2024/04/05 04:30:54;;;;;;;17.67;3.60;;;12.40;99.90;;;;;;5011612;28;20160;-81
2024/04/05 04:33:19;;;;;;;15.95;3.05;;;12.40;99.90;;;;;;5013506;28;20422;-81
2024/04/05 04:35:45;;;;;;;16.48;2.53;;;12.40;99.90;;;;;;5013543;28;20112;-81
2024/04/05 04:38:12;;;;;;;12.43;2.42;;;12.40;99.90;;;;;;5014437;28;20106;-81
2024/04/05 04:40:37;;;;;;;17.08;3.40;;;12.30;99.90;;;;;;5015061;28;20022;-81
2024/04/05 04:43:06;;;;;;;15.27;3.25;;;12.30;99.90;;;;;;5014671;28;20041;-81
2024/04/05 04:45:32;;;;;;;9.48;2.20;;;12.30;99.90;;;;;;5013090;28;20030;-80
2024/04/05 04:47:58;;;;;;;18.90;3.08;;;12.30;99.90;;;;;;5015151;28;20029;-80
2024/04/05 04:50:24;;;;;;;17.40;3.17;;;12.30;99.90;;;;;;5016276;28;20064;-80
2024/04/05 04:52:50;;;;;;;10.27;2.42;;;12.30;99.90;;;;;;5028359;28;20057;-81
2024/04/05 04:55:17;;;;;;;17.92;3.58;;;12.30;99.90;;;;;;5032459;28;20029;-79
2024/04/05 04:57:42;;;;;;;14.13;2.90;;;12.30;99.90;;;;;;5033982;28;20423;-79
2024/04/05 05:00:09;;;;;;;15.32;3.00;;;12.30;99.90;;;;;;5032543;28;20025;-80
2024/04/05 05:02:36;;;;;;;18.67;2.65;;;12.30;99.90;;;;;;5033731;28;20403;-80
2024/04/05 05:05:01;;;;;;;15.32;3.17;;;12.30;99.90;;;;;;5030814;28;20021;-79
2024/04/05 05:07:28;;;;;;;14.48;2.55;;;12.30;99.90;;;;;;5014679;28;20481;-80
2024/04/05 05:09:54;;;;;;;13.23;2.42;;;12.30;99.90;;;;;;5014176;28;20080;-80
2024/04/05 05:12:19;;;;;;;16.83;3.28;;;12.30;99.90;;;;;;5013837;28;20072;-80
2024/04/05 05:14:45;;;;;;;14.48;2.47;;;12.30;99.90;;;;;;5014263;28;20022;-80
2024/04/05 05:17:11;;;;;;;17.05;2.53;;;12.40;99.90;;;;;;5012870;28;20539;-80
2024/04/05 05:19:36;;;;;;;11.70;2.42;;;12.40;99.90;;;;;;5014162;28;20480;-81
2024/04/05 05:22:02;;;;;;;12.10;2.20;;;12.40;99.90;;;;;;5014254;28;20026;-80
2024/04/05 05:24:28;;;;;;;12.15;2.30;;;12.40;99.90;;;;;;5012361;28;20026;-80
2024/04/05 05:26:53;;;;;;;18.40;2.97;;;12.40;99.90;;;;;;5012622;28;20409;-80
2024/04/05 05:29:20;;;;;;;11.90;2.42;;;12.50;99.90;;;;;;5012353;28;20076;-80
2024/04/05 05:31:45;;;;;;;15.10;2.95;;;12.40;99.90;;;;;;5012475;28;20018;-80
2024/04/05 05:34:11;;;;;;;13.77;2.92;;;12.50;99.90;;;;;;5013763;28;20109;-80
2024/04/05 05:36:36;;;;;;;12.02;2.50;;;12.50;99.90;;;;;;5013884;28;20041;-80
2024/04/05 05:39:03;;;;;;;11.57;2.05;;;12.50;99.90;;;;;;5013382;28;20068;-80
2024/04/05 05:41:29;;;;;;;18.33;3.13;;;12.50;99.90;;;;;;5027960;28;20116;-80
2024/04/05 05:43:55;;;;;;;12.43;3.03;;;12.60;99.90;;;;;;5031810;28;20468;-79
2024/04/05 05:46:21;;;;;;;14.55;2.45;;;12.50;99.90;;;;;;5031918;28;20075;-79
2024/04/05 05:48:48;;;;;;;14.55;3.00;;;12.60;99.90;;;;;;5029938;28;20025;-79
2024/04/05 05:51:14;;;;;;;11.55;2.70;;;12.60;99.90;;;;;;5020479;28;20382;-79
2024/04/05 05:53:40;;;;;;;11.52;1.98;;;12.70;99.90;;;;;;5029947;28;20056;-79
2024/04/05 05:56:06;;;;;;;16.23;2.50;;;12.70;99.90;;;;;;5031002;28;20063;-79
2024/04/05 05:58:32;;;;;;;14.95;2.15;;;12.80;99.90;;;;;;5031437;28;20017;-79
2024/04/05 06:00:57;;;;;;;13.75;2.42;;;12.80;99.90;;;;;;5022624;28;20078;-80
2024/04/05 06:03:23;;;;;;;12.80;2.30;;;12.80;99.90;;;;;;5024931;28;20044;-79
2024/04/05 06:05:50;;;;;;;10.93;2.00;;;12.80;99.90;;;;;;5023237;28;20119;-80
2024/04/05 06:08:15;;;;;;;8.57;1.90;;;12.80;99.90;;;;;;5024095;28;20034;-80
2024/04/05 06:10:41;;;;;;;7.95;2.00;;;12.90;99.90;;;;;;5024673;28;20104;-80
2024/04/05 06:13:07;;;;;;;7.40;1.50;;;12.90;99.90;;;;;;5026051;28;20184;-80
2024/04/05 06:15:32;;;;;;;11.73;1.92;;;13.00;99.90;;;;;;5026076;28;20550;-80
2024/04/05 06:17:58;;;;;;;8.93;2.15;;;13.00;99.90;;;;;;5022852;28;20032;-80
2024/04/05 06:20:24;;;;;;;8.70;2.35;;;13.10;99.90;;;;;;5026075;28;20053;-79
2024/04/05 06:22:50;;;;;;;10.27;2.55;;;13.20;99.90;;;;;;5012733;28;20068;-80
2024/04/05 06:25:16;;;;;;;12.80;2.45;;;13.20;99.90;;;;;;5028326;28;20457;-80
2024/04/05 06:27:42;;;;;;;10.73;2.15;;;13.30;99.90;;;;;;5027656;28;20057;-80
2024/04/05 06:30:10;;;;;;;9.05;2.60;;;13.30;99.90;;;;;;5013531;28;20041;-80
2024/04/05 06:32:36;;;;;;;10.98;2.28;;;13.40;99.90;;;;;;5025258;28;20437;-80
2024/04/05 06:35:01;;;;;;;12.35;1.63;;;13.50;99.90;;;;;;5024019;28;20073;-81
2024/04/05 06:37:28;;;;;;;9.32;2.28;;;13.50;99.90;;;;;;5031570;28;20026;-80
2024/04/05 06:39:54;;;;;;;10.77;1.83;;;13.60;99.90;;;;;;5031325;28;20033;-81
2024/04/05 06:42:23;;;;;;;8.18;1.50;;;13.60;99.90;;;;;;5032388;28;20037;-81
2024/04/05 06:44:54;;;;;;;12.27;1.70;;;13.70;99.90;;;;;;5032508;28;20083;-80
2024/04/05 06:47:21;;;;;;;9.93;1.90;;;13.70;99.90;;;;;;5031424;28;20052;-80
2024/04/05 06:49:47;;;;;;;12.95;1.98;;;13.80;99.90;;;;;;5031590;28;20479;-80
2024/04/05 06:52:13;;;;;;;11.32;2.08;;;13.80;99.90;;;;;;5031445;28;20025;-80
2024/04/05 06:54:43;;;;;;;9.18;1.50;;;13.80;99.90;;;;;;5034642;28;20113;-79
2024/04/05 06:57:09;;;;;;;9.02;1.83;;;13.90;99.90;;;;;;5035959;28;20025;-79
2024/04/05 06:59:36;;;;;;;8.50;1.27;;;13.90;99.90;;;;;;5029611;28;20105;-80
2024/04/05 07:02:03;;;;;;;12.77;1.75;;;14.00;99.90;;;;;;5022307;28;20014;-80
2024/04/05 07:04:30;;;;;;;10.98;1.17;;;14.00;99.90;;;;;;5035005;28;20033;-80
2024/04/05 07:06:57;;;;;;;9.48;1.30;;;14.10;99.90;;;;;;5036135;28;20104;-81
2024/04/05 07:09:23;;;;;;;9.38;2.13;;;14.20;99.90;;;;;;5034666;28;20513;-82
2024/04/05 07:11:52;;;;;;;7.47;1.27;;;14.20;99.90;;;;;;5034583;28;20032;-81
2024/04/05 07:14:19;;;;;;;9.02;1.35;;;14.30;99.90;;;;;;5035853;28;20499;-81
2024/04/05 07:16:45;;;;;;;10.35;1.63;;;14.40;99.90;;;;;;5034543;28;20032;-81
2024/04/05 07:19:11;;;;;;;10.38;1.17;;;14.40;99.90;;;;;;5037140;28;20100;-81
2024/04/05 07:21:37;;;;;;;8.02;1.52;;;14.40;99.90;;;;;;5036437;28;20118;-81
2024/04/05 07:24:04;;;;;;;12.27;1.88;;;14.50;99.90;;;;;;5036545;28;20048;-81
2024/04/05 07:26:30;;;;;;;6.68;1.40;;;14.50;99.90;;;;;;5035264;28;20112;-81
2024/04/05 07:28:55;;;;;;;8.95;1.38;;;14.60;99.90;;;;;;5035936;28;20061;-81
2024/04/05 07:31:21;;;;;;;9.75;1.38;;;14.60;99.90;;;;;;5035959;28;20109;-81
2024/04/05 07:33:47;;;;;;;7.53;1.45;;;14.60;99.90;;;;;;5034305;28;20037;-81
2024/04/05 07:36:16;;;;;;;6.68;1.50;;;14.60;99.90;;;;;;5034816;28;20473;-81
2024/04/05 07:38:42;;;;;;;6.20;1.52;;;14.60;99.90;;;;;;5034161;28;20021;-81
2024/04/05 07:41:07;;;;;;;9.20;1.40;;;14.60;99.90;;;;;;5033834;28;20022;-80
2024/04/05 07:43:33;;;;;;;9.80;1.65;;;14.60;99.90;;;;;;5035539;28;20029;-81
2024/04/05 07:45:59;;;;;;;8.35;1.52;;;14.70;99.90;;;;;;5035919;28;20021;-81
2024/04/05 07:48:25;;;;;;;6.35;1.38;;;14.70;99.90;;;;;;5034350;28;20071;-81
2024/04/05 07:50:51;;;;;;;8.82;1.40;;;14.70;99.90;;;;;;5035582;28;20029;-82
2024/04/05 07:53:17;;;;;;;8.02;1.55;;;14.80;99.90;;;;;;5033945;28;20014;-81
2024/04/05 07:55:43;;;;;;;8.52;2.03;;;14.80;99.90;;;;;;5034565;28;20117;-81
2024/04/05 07:58:09;;;;;;;8.43;1.70;;;14.80;99.90;;;;;;5035269;28;20022;-80
2024/04/05 08:00:36;;;;;;;7.28;1.27;;;14.80;99.90;;;;;;5035425;28;20067;-80
2024/04/05 08:03:03;;;;;;;5.88;1.35;;;14.80;99.90;;;;;;5029136;28;20101;-80
2024/04/05 08:05:29;;;;;;;10.75;1.48;;;14.90;99.90;;;;;;5023913;28;20117;-80
2024/04/05 08:07:56;;;;;;;8.10;1.80;;;14.90;99.90;;;;;;5022920;28;20108;-81
2024/04/05 08:10:22;;;;;;;6.75;1.05;;;15.00;99.90;;;;;;5025655;28;20072;-81
2024/04/05 08:12:50;;;;;;;8.88;1.27;;;15.00;99.90;;;;;;5023141;28;20026;-80
2024/04/05 08:15:15;;;;;;;6.40;1.15;;;15.00;99.90;;;;;;5015143;28;20080;-80
2024/04/05 08:17:41;;;;;;;8.35;1.27;;;15.00;99.90;;;;;;5014967;28;20014;-80
2024/04/05 08:20:07;;;;;;;11.10;1.52;;;15.00;99.90;;;;;;5016907;28;20022;-80
2024/04/05 08:22:33;;;;;;;7.38;1.35;;;15.00;99.90;;;;;;5019293;28;20496;-80
2024/04/05 08:25:00;;;;;;;9.63;1.30;;;15.00;99.90;;;;;;5022942;28;20042;-80
2024/04/05 08:27:28;;;;;;;10.55;1.85;;;14.90;99.90;;;;;;5034795;28;20108;-81
2024/04/05 08:29:53;;;;;;;7.60;1.20;;;14.90;99.90;;;;;;5034918;28;20036;-79
2024/04/05 08:32:19;;;;;;;5.90;1.25;;;14.90;99.90;;;;;;5032218;28;20033;-81
2024/04/05 08:34:45;;;;;;;5.35;0.80;;;14.90;99.90;;;;;;5034703;28;20108;-81
2024/04/05 08:37:10;;;;;;;6.68;1.40;;;14.90;99.90;;;;;;5032705;28;20449;-81
2024/04/05 08:39:36;;;;;;;9.70;1.30;;;14.90;99.90;;;;;;5034451;28;20064;-81
2024/04/05 08:42:13;;;;;;;10.80;1.48;;;15.00;99.90;;;;;;5034486;28;20030;-80
2024/04/05 08:44:39;;;;;;;9.95;1.65;;;15.00;99.90;;;;;;5030485;28;20068;-81
2024/04/05 08:47:08;;;;;;;10.40;1.65;;;15.00;99.90;;;;;;5032993;28;20108;-81
2024/04/05 08:49:34;;;;;;;9.52;1.60;;;15.00;99.90;;;;;;5032885;28;20400;-80
2024/04/05 08:52:00;;;;;;;6.40;1.50;;;15.00;99.90;;;;;;5031898;28;20028;-80
2024/04/05 08:54:29;;;;;;;8.15;1.40;;;15.00;99.90;;;;;;5032288;28;20044;-80
2024/04/05 08:56:56;;;;;;;10.00;1.65;;;15.10;99.90;;;;;;5033997;28;20037;-81
2024/04/05 08:59:29;;;;;;;7.93;1.10;;;15.00;99.90;;;;;;5031788;28;20091;-81
2024/04/05 09:01:57;;;;;;;7.10;1.60;;;15.00;99.90;;;;;;5020374;28;20030;-80
2024/04/05 09:04:23;;;;;;;10.77;1.45;;;15.00;99.90;;;;;;5014330;28;20030;-81
2024/04/05 09:06:49;;;;;;;6.32;1.27;;;15.00;99.90;;;;;;5012760;28;20076;-81
2024/04/05 09:09:31;;;;;;;9.15;1.27;;;15.00;99.90;;;;;;5013976;28;20488;-81
2024/04/05 09:12:01;;;;;;;6.88;1.05;;;15.00;99.90;;;;;;5012929;28;20409;-80
2024/04/05 09:14:27;;;;;;;7.20;1.52;;;15.00;99.90;;;;;;5012983;28;20033;-81
2024/04/05 09:16:53;;;;;;;6.72;1.13;;;15.00;99.90;;;;;;5012230;28;20022;-81
2024/04/05 09:19:20;;;;;;;5.60;1.00;;;15.00;99.90;;;;;;5012786;28;20029;-83
2024/04/05 09:21:46;;;;;;;6.53;1.10;;;15.00;99.90;;;;;;5012470;28;20031;-80
2024/04/05 09:24:12;;;;;;;8.25;1.30;;;15.00;99.90;;;;;;5012743;28;20061;-81
2024/04/05 09:26:38;;;;;;;9.70;1.33;;;15.00;99.90;;;;;;5013739;28;20030;-81
2024/04/05 09:29:07;;;;;;;8.35;1.13;;;15.00;99.90;;;;;;5013750;28;20037;-82
2024/04/05 09:31:34;;;;;;;6.95;1.20;;;14.90;99.90;;;;;;5012684;28;20389;-81
2024/04/05 09:34:06;;;;;;;8.52;1.13;;;14.90;99.90;;;;;;5013802;28;20022;-82
2024/04/05 09:36:36;;;;;;;7.97;1.63;;;14.80;99.90;;;;;;5013447;28;20470;-80
2024/04/05 09:39:06;;;;;;;5.55;1.10;;;14.80;99.90;;;;;;5012218;28;20018;-80
2024/04/05 09:41:33;;;;;;;5.93;1.42;;;14.80;99.90;;;;;;5031543;28;20013;-82
2024/04/05 09:44:02;;;;;;;8.88;1.23;;;14.70;99.90;;;;;;5032049;28;20466;-82
2024/04/05 09:46:28;;;;;;;11.95;1.80;;;14.70;99.90;;;;;;5033058;28;20485;-79
2024/04/05 09:49:00;;;;;;;6.97;1.40;;;14.70;99.90;;;;;;5033685;28;20021;-82
2024/04/05 09:51:44;;;;;;;6.53;1.70;;;14.70;99.90;;;;;;5032143;28;20052;-83
2024/04/05 09:54:22;;;;;;;12.43;1.40;;;14.70;99.90;;;;;;5031903;28;20071;-82
2024/04/05 09:56:49;;;;;;;7.20;1.58;;;14.60;99.90;;;;;;5024267;28;20037;-83
2024/04/05 09:59:28;;;;;;;7.85;2.05;;;14.60;99.90;;;;;;5024790;28;20026;-81
2024/04/05 10:01:55;;;;;;;6.22;1.40;;;14.60;99.90;;;;;;5024793;28;20041;-83
2024/04/05 10:04:21;;;;;;;6.22;1.42;;;14.60;99.90;;;;;;5018273;28;20101;-82
2024/04/05 10:06:47;;;;;;;9.95;1.67;;;14.50;99.90;;;;;;5024444;28;20508;-82
2024/04/05 10:09:21;;;;;;;8.40;1.95;;;14.60;99.90;;;;;;5013687;28;20478;-84
2024/04/05 10:11:49;;;;;;;8.27;1.75;;;14.60;99.90;;;;;;5013383;28;20109;-83
2024/04/05 10:14:28;;;;;;;11.07;1.40;;;14.60;99.90;;;;;;5017698;28;20456;-83
2024/04/05 10:17:08;;;;;;;4.57;1.20;;;14.70;99.90;;;;;;5011567;28;20038;-84
2024/04/05 10:19:36;;;;;;;4.45;1.30;;;14.80;99.90;;;;;;5011766;28;20038;-82
2024/04/05 10:22:19;;;;;;;6.65;1.48;;;14.90;99.90;;;;;;5011934;28;20061;-83
2024/04/05 10:24:45;;;;;;;5.73;1.50;;;15.10;99.90;;;;;;5011906;28;20460;-83
2024/04/05 10:27:22;;;;;;;7.75;1.60;;;15.30;99.90;;;;;;5012706;28;20029;-82
2024/04/05 10:30:02;;;;;;;4.05;0.93;;;15.40;99.90;;;;;;5016132;28;20544;-82
2024/04/05 10:32:29;;;;;;;5.07;1.15;;;15.50;99.90;;;;;;5016971;28;20037;-83
2024/04/05 10:35:11;;;;;;;4.10;1.00;;;15.60;99.90;;;;;;5015662;28;20028;-83
2024/04/05 10:37:41;;;;;;;6.60;1.27;;;15.60;99.90;;;;;;5016988;28;20485;-83
2024/04/05 10:40:12;;;;;;;6.00;1.13;;;15.60;99.90;;;;;;5015360;28;20030;-84
2024/04/05 10:42:38;;;;;;;5.20;1.30;;;15.70;99.90;;;;;;5015633;28;20018;-83
2024/04/05 10:45:05;;;;;;;7.15;1.13;;;15.70;99.90;;;;;;5015881;28;20030;-83
2024/04/05 10:47:33;;;;;;;4.15;0.80;;;15.80;99.90;;;;;;5016591;28;20052;-82
2024/04/05 10:50:05;;;;;;;6.35;1.10;;;15.90;99.90;;;;;;5015452;28;20080;-82
2024/04/05 10:52:33;;;;;;;4.07;0.80;;;16.00;99.90;;;;;;5015468;28;20030;-82
2024/04/05 10:55:12;;;;;;;6.05;0.82;;;16.20;99.90;;;;;;5016386;28;20029;-84
2024/04/05 10:57:38;;;;;;;4.70;0.93;;;16.20;99.90;;;;;;5016026;28;20117;-84
2024/04/05 11:00:11;;;;;;;5.55;0.80;;;16.30;99.90;;;;;;5021409;28;20022;-83
2024/04/05 11:02:41;;;;;;;6.30;1.67;;;16.30;99.90;;;;;;5022340;28;20037;-84
2024/04/05 11:05:10;;;;;;;5.63;1.25;;;16.30;99.90;;;;;;5037672;28;20029;-83
2024/04/05 11:07:36;;;;;;;4.35;1.05;;;16.30;99.90;;;;;;5030501;28;20172;-83
2024/04/05 11:10:23;;;;;;;4.45;1.25;;;16.30;99.90;;;;;;5026207;28;20021;-83
2024/04/05 11:12:49;;;;;;;5.18;1.00;;;16.30;99.90;;;;;;5025636;28;20030;-80
2024/04/05 11:15:19;;;;;;;4.40;1.13;;;16.30;99.90;;;;;;5026108;28;20022;-84
2024/04/05 11:17:46;;;;;;;4.47;1.10;;;16.40;99.90;;;;;;5019449;28;20049;-83
2024/04/05 11:20:13;;;;;;;4.80;1.17;;;16.40;99.90;;;;;;5015003;28;20033;-83
2024/04/05 11:22:42;;;;;;;4.68;0.80;;;16.50;99.90;;;;;;5016070;28;20034;-82
2024/04/05 11:25:08;;;;;;;4.03;1.10;;;16.50;99.90;;;;;;5014886;28;20026;-85
2024/04/05 11:27:34;;;;;;;5.38;0.80;;;16.50;99.90;;;;;;5015836;28;20092;-82
2024/04/05 11:30:03;;;;;;;3.83;0.88;;;16.60;99.90;;;;;;5015941;28;20030;-83
2024/04/05 11:32:31;;;;;;;4.50;1.23;;;16.70;99.90;;;;;;5014608;28;20030;-83
2024/04/05 11:35:01;;;;;;;5.53;0.90;;;16.70;99.90;;;;;;5014715;28;20089;-83
2024/04/05 11:37:30;;;;;;;5.22;0.93;;;16.70;99.90;;;;;;5035488;28;20030;-81
2024/04/05 11:39:59;;;;;;;4.78;0.90;;;16.80;99.90;;;;;;5033450;28;20507;-83
2024/04/05 11:42:25;;;;;;;3.22;0.63;;;16.80;99.90;;;;;;5035458;28;20076;-81
2024/04/05 11:44:51;;;;;;;2.72;0.60;;;16.80;99.90;;;;;;5035471;28;20025;-82
2024/04/05 11:47:21;;;;;;;5.63;0.75;;;16.80;99.90;;;;;;5035298;28;20029;-82
2024/04/05 11:49:48;;;;;;;3.85;0.80;;;16.80;99.90;;;;;;5034030;28;20473;-83
2024/04/05 11:52:13;;;;;;;5.40;0.80;;;16.80;99.90;;;;;;5033261;28;20116;-82
2024/04/05 11:54:39;;;;;;;4.00;0.80;;;16.70;99.90;;;;;;5034329;28;20053;-82
2024/04/05 11:57:05;;;;;;;4.75;0.98;;;16.60;99.90;;;;;;5035084;28;20040;-83
2024/04/05 11:59:30;;;;;;;4.45;0.70;;;16.60;99.90;;;;;;5018712;28;20026;-84
2024/04/05 12:01:56;;;;;;;3.17;0.60;;;16.60;99.90;;;;;;5027130;28;20030;-82
2024/04/05 12:04:23;;;;;;;3.60;0.70;;;16.50;99.90;;;;;;5033751;28;20449;-83
2024/04/05 12:06:50;;;;;;;4.90;0.85;;;16.50;99.90;;;;;;5033412;28;20037;-82
2024/04/05 12:09:47;;;;;;;5.28;1.00;;;16.50;99.90;;;;;;5033707;28;20045;-83
2024/04/05 12:12:13;;;;;;;7.68;0.98;;;16.40;99.90;;;;;;5033142;28;20021;-83
2024/04/05 12:14:38;;;;;;;5.30;1.00;;;16.40;99.90;;;;;;5031529;28;20025;-82
2024/04/05 12:17:04;;;;;;;4.88;0.80;;;16.30;99.90;;;;;;5013654;28;20396;-82
2024/04/05 12:19:30;;;;;;;5.82;0.90;;;16.30;99.90;;;;;;5015114;28;20486;-83
2024/04/05 12:21:56;;;;;;;3.92;0.88;;;16.30;99.90;;;;;;5014909;28;20033;-82
2024/04/05 12:24:21;;;;;;;6.28;0.90;;;16.30;99.90;;;;;;5014536;28;20441;-84
2024/04/05 12:26:47;;;;;;;4.22;0.60;;;16.30;99.90;;;;;;5014821;28;20033;-82
2024/04/05 12:29:13;;;;;;;7.85;1.02;;;16.30;99.90;;;;;;5013666;28;20055;-82
2024/04/05 12:31:40;;;;;;;3.70;0.60;;;16.30;99.90;;;;;;5013247;28;20018;-84
2024/04/05 12:34:06;;;;;;;3.28;0.70;;;16.40;99.90;;;;;;5014794;28;20508;-82
2024/04/05 12:36:32;;;;;;;5.32;0.80;;;16.40;99.90;;;;;;5022960;28;20029;-82
2024/04/05 12:39:05;;;;;;;3.47;0.77;;;16.40;99.90;;;;;;5034402;28;20022;-82
2024/04/05 12:41:33;;;;;;;2.03;0.60;;;16.40;99.90;;;;;;5021509;28;20018;-83